createdAt,value
2018-03-20T00:01:04.216Z,86.90
2018-03-20T00:03:32.746Z,87.70
2018-03-20T00:06:00.382Z,87.70
2018-03-20T00:08:27.938Z,86.60
2018-03-20T00:10:57.397Z,86.30
2018-03-20T00:13:24.925Z,86.10
2018-03-20T00:15:52.436Z,86.40
2018-03-20T00:18:20.910Z,87.70
2018-03-20T00:20:48.524Z,87.60
2018-03-20T00:23:16.084Z,88.60
2018-03-20T00:25:44.248Z,87.00
2018-03-20T00:28:11.758Z,87.30
2018-03-20T00:30:40.987Z,87.50
2018-03-20T00:33:08.509Z,87.40
2018-03-20T00:35:36.139Z,87.70
2018-03-20T00:38:03.686Z,86.70
2018-03-20T00:40:31.253Z,86.90
2018-03-20T00:45:59.089Z,87.90
2018-03-20T00:48:29.282Z,87.60
2018-03-20T00:50:56.906Z,87.60
2018-03-20T00:53:24.479Z,87.70
2018-03-20T00:55:52.066Z,88.20
2018-03-20T00:58:19.665Z,87.60
2018-03-20T01:00:47.963Z,87.90
2018-03-20T01:03:16.263Z,87.60
2018-03-20T01:05:43.806Z,87.60
2018-03-20T01:08:12.669Z,86.70
2018-03-20T01:10:41.172Z,86.60
2018-03-20T01:13:10.392Z,87.10
2018-03-20T01:15:38.702Z,86.30
2018-03-20T01:18:06.227Z,86.30
2018-03-20T01:20:33.832Z,87.60
2018-03-20T01:23:02.324Z,87.70
2018-03-20T01:25:29.943Z,87.70
2018-03-20T01:27:57.556Z,86.30
2018-03-20T01:30:25.146Z,86.50
2018-03-20T01:33:12.344Z,87.60
2018-03-20T01:38:40.284Z,86.30
2018-03-20T01:41:09.600Z,87.20
2018-03-20T01:43:37.116Z,87.10
2018-03-20T01:46:04.613Z,87.50
2018-03-20T01:48:32.269Z,86.80
2018-03-20T01:51:00.652Z,88.50
2018-03-20T01:53:28.983Z,87.70
2018-03-20T01:55:56.548Z,87.70
2018-03-20T01:58:24.065Z,88.70
2018-03-20T02:00:52.401Z,88.00
2018-03-20T02:03:19.990Z,88.10
2018-03-20T02:05:47.530Z,87.70
2018-03-20T02:08:15.084Z,87.50
2018-03-20T02:10:42.683Z,87.50
2018-03-20T02:13:10.263Z,88.70
2018-03-20T02:15:38.570Z,87.80
2018-03-20T02:18:06.150Z,87.80
2018-03-20T02:20:33.771Z,87.80
2018-03-20T02:23:01.387Z,89.50
2018-03-20T02:25:28.901Z,89.20
2018-03-20T02:27:56.514Z,88.80
2018-03-20T02:30:24.908Z,89.20
2018-03-20T02:32:52.493Z,88.90
2018-03-20T02:35:20.943Z,89.00
2018-03-20T02:37:48.554Z,89.50
2018-03-20T02:40:18.044Z,88.40
2018-03-20T02:42:46.174Z,88.70
2018-03-20T02:45:14.606Z,87.90
2018-03-20T02:47:42.190Z,87.90
2018-03-20T02:50:09.812Z,89.30
2018-03-20T02:52:37.318Z,90.00
2018-03-20T02:55:04.950Z,89.00
2018-03-20T02:57:32.611Z,87.40
2018-03-20T03:00:00.130Z,88.20
2018-03-20T03:02:28.417Z,87.80
2018-03-20T03:04:56.718Z,88.00
2018-03-20T03:07:24.305Z,88.00
2018-03-20T03:09:51.887Z,88.40
2018-03-20T03:12:19.450Z,87.30
2018-03-20T03:14:47.033Z,89.20
2018-03-20T03:17:14.585Z,89.40
2018-03-20T03:19:42.162Z,87.90
2018-03-20T03:22:09.802Z,87.00
2018-03-20T03:24:37.603Z,88.10
2018-03-20T03:27:05.145Z,89.70
2018-03-20T03:29:32.661Z,89.50
2018-03-20T03:32:00.973Z,87.70
2018-03-20T03:34:28.563Z,87.70
2018-03-20T03:36:57.919Z,88.20
2018-03-20T03:39:25.492Z,88.10
2018-03-20T03:41:53.141Z,88.40
2018-03-20T03:44:21.530Z,88.50
2018-03-20T03:46:49.096Z,88.50
2018-03-20T03:49:16.695Z,90.00
2018-03-20T03:51:44.341Z,88.20
2018-03-20T03:54:11.891Z,87.30
2018-03-20T03:56:40.207Z,89.10
2018-03-20T03:59:07.770Z,89.10
2018-03-20T04:01:35.400Z,89.20
2018-03-20T04:04:02.906Z,88.90
2018-03-20T04:06:30.434Z,87.90
2018-03-20T04:08:58.064Z,89.00
2018-03-20T04:11:25.663Z,88.10
2018-03-20T04:13:53.340Z,88.40
2018-03-20T04:16:20.909Z,90.00
2018-03-20T04:18:49.409Z,89.00
2018-03-20T04:21:17.494Z,88.40
2018-03-20T04:23:45.086Z,88.80
2018-03-20T04:26:13.578Z,89.10
2018-03-20T04:28:41.256Z,88.40
2018-03-20T04:31:09.587Z,87.60
2018-03-20T04:33:37.125Z,87.40
2018-03-20T04:36:04.661Z,87.90
2018-03-20T04:38:33.035Z,88.60
2018-03-20T04:41:00.682Z,88.80
2018-03-20T04:43:28.216Z,87.70
2018-03-20T04:45:55.833Z,89.40
2018-03-20T04:48:23.360Z,88.60
2018-03-20T04:50:50.931Z,88.30
2018-03-20T04:53:18.464Z,87.50
2018-03-20T04:55:47.015Z,86.80
2018-03-20T04:58:14.608Z,87.80
2018-03-20T05:00:42.195Z,88.10
2018-03-20T05:03:09.730Z,88.80
2018-03-20T05:05:38.219Z,87.60
2018-03-20T05:08:06.530Z,88.30
2018-03-20T05:10:34.069Z,88.30
2018-03-20T05:13:01.661Z,87.90
2018-03-20T05:15:30.125Z,85.80
2018-03-20T05:17:58.467Z,86.00
2018-03-20T05:20:32.375Z,86.30
2018-03-20T05:23:05.690Z,86.10
2018-03-20T05:25:34.174Z,85.40
2018-03-20T05:28:01.731Z,85.00
2018-03-20T05:30:29.397Z,86.60
2018-03-20T05:32:56.911Z,85.80
2018-03-20T05:35:25.254Z,88.20
2018-03-20T05:37:53.528Z,85.80
2018-03-20T05:40:21.927Z,85.70
2018-03-20T05:42:50.220Z,84.60
2018-03-20T05:45:17.813Z,84.60
2018-03-20T05:47:51.166Z,85.40
2018-03-20T05:50:25.224Z,85.20
2018-03-20T05:52:52.760Z,85.10
2018-03-20T05:55:20.276Z,85.60
2018-03-20T05:57:47.860Z,87.40
2018-03-20T06:00:15.423Z,86.80
2018-03-20T06:02:43.621Z,85.80
2018-03-20T06:05:11.915Z,85.50
2018-03-20T06:07:40.995Z,85.40
2018-03-20T06:10:08.524Z,85.60
2018-03-20T06:12:36.108Z,84.30
2018-03-20T06:15:05.662Z,85.80
2018-03-20T06:17:33.218Z,85.30
2018-03-20T06:20:00.729Z,84.00
2018-03-20T06:22:29.255Z,83.10
2018-03-20T06:24:56.766Z,83.10
2018-03-20T06:27:24.298Z,84.50
2018-03-20T06:29:51.840Z,84.00
2018-03-20T06:32:20.144Z,81.80
2018-03-20T06:34:47.736Z,81.80
2018-03-20T06:37:15.253Z,82.20
2018-03-20T06:39:42.785Z,82.00
2018-03-20T06:45:13.418Z,79.00
2018-03-20T06:47:41.024Z,80.00
2018-03-20T06:50:09.402Z,79.50
2018-03-20T06:52:38.788Z,80.00
2018-03-20T06:55:06.432Z,80.20
2018-03-20T06:57:34.053Z,79.30
2018-03-20T07:00:01.572Z,79.50
2018-03-20T07:02:29.175Z,80.10
2018-03-20T07:04:58.437Z,78.50
2018-03-20T07:07:26.024Z,78.30
2018-03-20T07:09:53.605Z,76.70
2018-03-20T07:15:20.958Z,75.30
2018-03-20T07:17:48.523Z,76.60
2018-03-20T07:20:16.065Z,76.30
2018-03-20T07:22:44.535Z,77.80
2018-03-20T07:25:12.098Z,75.30
2018-03-20T07:27:40.525Z,75.00
2018-03-20T07:30:08.856Z,74.60
2018-03-20T07:32:36.402Z,74.50
2018-03-20T07:35:04.360Z,75.70
2018-03-20T07:37:32.625Z,77.10
2018-03-20T07:40:00.901Z,77.10
2018-03-20T07:42:28.487Z,77.10
2018-03-20T07:44:57.717Z,74.00
2018-03-20T07:47:25.328Z,74.00
2018-03-20T07:49:52.864Z,72.80
2018-03-20T07:52:20.388Z,74.40
2018-03-20T07:54:48.840Z,73.20
2018-03-20T07:57:16.478Z,73.60
2018-03-20T07:59:44.079Z,72.30
2018-03-20T08:02:11.599Z,73.00
2018-03-20T08:04:39.273Z,73.10
2018-03-20T08:07:07.757Z,72.90
2018-03-20T08:09:35.891Z,72.60
2018-03-20T08:12:03.419Z,70.10
2018-03-20T08:14:30.915Z,71.80
2018-03-20T08:17:01.147Z,70.10
2018-03-20T08:19:28.795Z,70.00
2018-03-20T08:21:56.389Z,72.10
2018-03-20T08:24:23.963Z,72.30
2018-03-20T08:26:52.487Z,70.10
2018-03-20T08:29:21.062Z,69.90
2018-03-20T08:31:48.645Z,71.20
2018-03-20T08:34:16.279Z,69.20
2018-03-20T08:36:44.620Z,69.70
2018-03-20T08:39:12.986Z,72.20
2018-03-20T08:41:41.445Z,72.20
2018-03-20T08:44:08.966Z,69.20
2018-03-20T08:46:37.567Z,71.40
2018-03-20T08:49:05.133Z,69.00
2018-03-20T08:51:33.351Z,71.30
2018-03-20T08:54:00.974Z,69.80
2018-03-20T08:56:28.596Z,71.70
2018-03-20T08:58:57.071Z,68.70
2018-03-20T09:01:24.660Z,71.40
2018-03-20T09:03:52.946Z,70.80
2018-03-20T09:06:21.286Z,70.90
2018-03-20T09:08:48.861Z,70.70
2018-03-20T09:11:16.429Z,70.30
2018-03-20T09:13:43.991Z,72.20
2018-03-20T09:16:11.546Z,70.90
2018-03-20T09:18:40.917Z,70.10
2018-03-20T09:21:08.460Z,70.20
2018-03-20T09:23:37.708Z,69.20
2018-03-20T09:26:05.208Z,69.10
2018-03-20T09:28:32.875Z,68.20
2018-03-20T09:31:00.433Z,68.90
2018-03-20T09:33:28.021Z,69.40
2018-03-20T09:35:58.236Z,65.90
2018-03-20T09:38:25.794Z,65.90
2018-03-20T09:40:53.407Z,65.20
2018-03-20T09:43:21.020Z,67.80
2018-03-20T09:45:48.664Z,67.00
2018-03-20T09:48:16.231Z,67.50
2018-03-20T09:50:43.790Z,67.10
2018-03-20T09:53:12.417Z,67.00
2018-03-20T09:55:40.700Z,67.70
2018-03-20T09:58:08.226Z,67.70
2018-03-20T10:00:35.780Z,69.20
2018-03-20T10:03:03.464Z,68.40
2018-03-20T10:05:31.024Z,66.60
2018-03-20T10:07:58.595Z,65.40
2018-03-20T10:10:27.125Z,65.50
2018-03-20T10:12:54.676Z,65.70
2018-03-20T10:15:22.969Z,64.60
2018-03-20T10:17:50.517Z,64.70
2018-03-20T10:20:20.973Z,63.50
2018-03-20T10:22:48.480Z,63.50
2018-03-20T10:25:16.837Z,62.50
2018-03-20T10:27:44.344Z,62.40
2018-03-20T10:30:11.911Z,59.80
2018-03-20T10:32:39.470Z,62.20
2018-03-20T10:35:07.005Z,61.20
2018-03-20T10:37:34.541Z,63.50
2018-03-20T10:40:02.064Z,63.90
2018-03-20T10:42:30.574Z,65.40
2018-03-20T10:44:58.118Z,63.40
2018-03-20T10:47:25.692Z,63.50
2018-03-20T10:49:53.310Z,66.30
2018-03-20T10:52:20.898Z,65.20
2018-03-20T10:54:48.499Z,62.10
2018-03-20T10:57:16.781Z,61.70
2018-03-20T10:59:46.015Z,62.50
2018-03-20T11:02:19.397Z,62.60
2018-03-20T11:04:47.048Z,58.90
2018-03-20T11:07:14.603Z,61.60
2018-03-20T11:09:43.234Z,63.40
2018-03-20T11:12:12.706Z,60.80
2018-03-20T11:14:41.860Z,60.70
2018-03-20T11:17:09.375Z,62.90
2018-03-20T11:19:40.467Z,63.10
2018-03-20T11:22:09.153Z,63.20
2018-03-20T11:24:37.008Z,64.60
2018-03-20T11:27:06.163Z,67.10
2018-03-20T11:29:33.749Z,67.00
2018-03-20T11:32:02.576Z,67.50
2018-03-20T11:34:30.187Z,67.50
2018-03-20T11:36:58.766Z,65.50
2018-03-20T11:39:26.474Z,65.40
2018-03-20T11:41:53.984Z,67.50
2018-03-20T11:44:21.617Z,65.20
2018-03-20T11:46:54.146Z,66.40
2018-03-20T11:49:21.700Z,66.90
2018-03-20T11:51:52.220Z,64.90
2018-03-20T11:54:19.793Z,64.80
2018-03-20T11:56:47.347Z,66.10
2018-03-20T11:59:14.955Z,65.40
2018-03-20T12:01:43.486Z,67.20
2018-03-20T12:04:12.192Z,64.80
2018-03-20T12:06:39.766Z,65.70
2018-03-20T12:09:21.370Z,67.60
2018-03-20T12:11:48.998Z,65.70
2018-03-20T12:14:16.635Z,63.60
2018-03-20T12:16:44.292Z,64.40
2018-03-20T12:19:12.731Z,63.30
2018-03-20T12:21:40.337Z,63.30
2018-03-20T12:24:09.275Z,62.50
2018-03-20T12:26:37.718Z,62.50
2018-03-20T12:29:07.023Z,66.90
2018-03-20T12:31:34.574Z,66.40
2018-03-20T12:34:02.200Z,64.60
2018-03-20T12:36:29.842Z,64.90
2018-03-20T12:38:57.389Z,66.30
2018-03-20T12:41:27.616Z,66.00
2018-03-20T12:43:55.734Z,65.90
2018-03-20T12:46:23.383Z,65.60
2018-03-20T12:48:51.861Z,67.20
2018-03-20T12:51:20.106Z,66.30
2018-03-20T12:53:47.624Z,63.60
2018-03-20T12:56:16.118Z,64.70
2018-03-20T12:58:43.750Z,65.30
2018-03-20T13:01:12.221Z,62.50
2018-03-20T13:03:40.514Z,60.70
2018-03-20T13:06:09.037Z,60.70
2018-03-20T13:08:36.663Z,61.80
2018-03-20T13:11:04.347Z,62.40
2018-03-20T13:13:31.942Z,63.90
2018-03-20T13:15:59.550Z,64.30
2018-03-20T13:18:27.105Z,63.60
2018-03-20T13:20:54.660Z,64.00
2018-03-20T13:23:22.286Z,64.80
2018-03-20T13:25:50.828Z,63.30
2018-03-20T13:28:19.355Z,66.70
2018-03-20T13:30:46.973Z,63.20
2018-03-20T13:33:14.602Z,65.50
2018-03-20T13:35:42.474Z,65.70
2018-03-20T13:38:10.112Z,62.90
2018-03-20T13:40:37.638Z,60.00
2018-03-20T13:43:05.320Z,60.60
2018-03-20T13:45:32.999Z,59.70
2018-03-20T13:48:00.563Z,60.10
2018-03-20T13:50:30.164Z,61.40
2018-03-20T13:52:59.445Z,62.30
2018-03-20T13:55:26.981Z,62.30
2018-03-20T13:57:56.143Z,62.70
2018-03-20T14:00:23.792Z,64.10
2018-03-20T14:02:51.340Z,65.00
2018-03-20T14:05:19.692Z,65.10
2018-03-20T14:07:47.313Z,65.10
2018-03-20T14:10:17.194Z,63.10
2018-03-20T14:12:45.612Z,63.10
2018-03-20T14:15:14.681Z,64.10
2018-03-20T14:17:43.126Z,64.10
2018-03-20T14:20:10.668Z,66.30
2018-03-20T14:22:39.010Z,62.60
2018-03-20T14:25:06.556Z,62.50
2018-03-20T14:27:34.135Z,60.60
2018-03-20T14:30:01.647Z,60.10
2018-03-20T14:32:29.305Z,62.10
2018-03-20T14:34:58.859Z,61.40
2018-03-20T14:37:27.197Z,62.50
2018-03-20T14:39:55.570Z,62.50
2018-03-20T14:42:23.166Z,62.40
2018-03-20T14:45:00.252Z,63.60
2018-03-20T14:47:27.920Z,63.90
2018-03-20T14:49:55.493Z,62.20
2018-03-20T14:52:23.991Z,61.30
2018-03-20T14:54:51.558Z,61.30
2018-03-20T14:57:19.251Z,61.10
2018-03-20T14:59:47.768Z,59.70
2018-03-20T15:02:16.788Z,59.30
2018-03-20T15:04:45.511Z,59.50
2018-03-20T15:07:13.627Z,60.00
2018-03-20T15:09:41.919Z,58.80
2018-03-20T15:12:10.210Z,58.70
2018-03-20T15:14:38.689Z,58.80
2018-03-20T15:17:06.299Z,61.00
2018-03-20T15:19:34.794Z,58.80
2018-03-20T15:22:04.026Z,62.30
2018-03-20T15:24:31.642Z,62.00
2018-03-20T15:26:59.206Z,60.90
2018-03-20T15:29:27.716Z,62.10
2018-03-20T15:31:55.266Z,58.60
2018-03-20T15:34:22.809Z,59.00
2018-03-20T15:36:51.281Z,58.30
2018-03-20T15:39:18.938Z,60.80
2018-03-20T15:41:46.504Z,61.70
2018-03-20T15:44:14.780Z,62.20
2018-03-20T15:46:43.084Z,63.80
2018-03-20T15:49:10.646Z,63.80
2018-03-20T15:51:38.216Z,62.80
2018-03-20T15:54:05.793Z,63.50
2018-03-20T15:56:34.264Z,63.00
2018-03-20T15:59:01.885Z,64.20
2018-03-20T16:01:29.527Z,64.80
2018-03-20T16:03:57.064Z,63.80
2018-03-20T16:06:24.902Z,64.50
2018-03-20T16:08:53.182Z,66.00
2018-03-20T16:11:21.498Z,67.70
2018-03-20T16:13:50.994Z,67.80
2018-03-20T16:16:18.697Z,64.30
2018-03-20T16:18:46.253Z,64.00
2018-03-20T16:21:13.797Z,63.90
2018-03-20T16:23:41.412Z,65.50
2018-03-20T16:26:09.019Z,65.20
2018-03-20T16:28:36.573Z,68.90
2018-03-20T16:31:04.956Z,66.70
2018-03-20T16:33:33.432Z,66.90
2018-03-20T16:36:01.068Z,67.00
2018-03-20T16:38:29.523Z,69.20
2018-03-20T16:40:58.097Z,69.80
2018-03-20T16:43:25.646Z,69.20
2018-03-20T16:45:54.185Z,69.10
2018-03-20T16:48:21.679Z,70.20
2018-03-20T16:50:50.279Z,69.60
2018-03-20T16:53:17.806Z,71.00
2018-03-20T16:56:03.251Z,71.90
2018-03-20T16:58:31.638Z,72.20
2018-03-20T17:03:41.967Z,72.90
2018-03-20T17:06:10.284Z,73.10
2018-03-20T17:08:37.804Z,72.80
2018-03-20T17:11:07.084Z,73.40
2018-03-20T17:13:34.680Z,73.40
2018-03-20T17:16:02.255Z,75.50
2018-03-20T17:18:30.544Z,75.70
2018-03-20T17:20:58.132Z,75.60
2018-03-20T17:23:25.747Z,74.80
2018-03-20T17:25:53.290Z,75.70
2018-03-20T17:28:20.896Z,74.20
2018-03-20T17:30:49.219Z,74.50
2018-03-20T17:33:16.818Z,74.10
2018-03-20T17:35:45.187Z,73.60
2018-03-20T17:38:12.735Z,75.00
2018-03-20T17:40:41.150Z,75.70
2018-03-20T17:43:08.773Z,77.20
2018-03-20T17:45:36.327Z,74.60
2018-03-20T17:48:03.962Z,75.40
2018-03-20T17:50:31.634Z,75.30
2018-03-20T17:53:01.174Z,74.80
2018-03-20T17:55:28.801Z,74.00
2018-03-20T17:57:57.298Z,74.10
2018-03-20T18:00:27.553Z,74.20
2018-03-20T18:02:55.182Z,74.00
2018-03-20T18:05:22.734Z,74.40
2018-03-20T18:07:50.451Z,74.50
2018-03-20T18:10:18.894Z,75.10
2018-03-20T18:12:46.504Z,76.50
2018-03-20T18:15:14.141Z,76.70
2018-03-20T18:17:42.446Z,78.60
2018-03-20T18:20:10.897Z,78.50
2018-03-20T18:22:40.151Z,81.00
2018-03-20T18:25:07.718Z,81.00
2018-03-20T18:27:35.322Z,81.10
2018-03-20T18:30:02.931Z,79.80
2018-03-20T18:32:30.468Z,81.00
2018-03-20T18:34:58.763Z,83.00
2018-03-20T18:37:26.555Z,83.10
2018-03-20T18:39:56.003Z,83.90
2018-03-20T18:42:24.487Z,84.70
2018-03-20T18:44:54.089Z,84.70
2018-03-20T18:47:21.618Z,87.70
2018-03-20T18:49:49.923Z,88.40
2018-03-20T18:52:17.469Z,89.40
2018-03-20T18:54:45.054Z,89.50
2018-03-20T18:57:13.585Z,90.30
2018-03-20T18:59:41.876Z,91.10
2018-03-20T19:02:09.455Z,91.00
2018-03-20T19:04:37.117Z,91.20
2018-03-20T19:07:04.665Z,91.20
2018-03-20T19:09:33.636Z,91.70
2018-03-20T19:12:01.250Z,91.70
2018-03-20T19:14:28.808Z,92.30
2018-03-20T19:16:56.450Z,93.00
2018-03-20T19:19:24.760Z,93.00
2018-03-20T19:21:52.313Z,92.90
2018-03-20T19:24:19.813Z,92.90
2018-03-20T19:26:47.744Z,93.30
2018-03-20T19:29:16.034Z,93.60
2018-03-20T19:31:43.572Z,93.60
2018-03-20T19:34:11.186Z,93.60
2018-03-20T19:36:38.781Z,94.00
2018-03-20T19:39:07.403Z,93.30
2018-03-20T19:41:35.817Z,93.30
2018-03-20T19:44:03.351Z,93.30
2018-03-20T19:46:30.916Z,93.40
2018-03-20T19:48:59.207Z,93.20
2018-03-20T19:51:26.825Z,93.20
2018-03-20T19:53:54.399Z,93.40
2018-03-20T19:56:24.131Z,93.70
2018-03-20T19:58:52.609Z,93.40
2018-03-20T20:01:20.154Z,94.00
2018-03-20T20:03:47.679Z,95.50
2018-03-20T20:06:16.198Z,95.90
2018-03-20T20:08:44.721Z,96.00
2018-03-20T20:11:12.239Z,95.70
2018-03-20T20:13:39.828Z,96.00
2018-03-20T20:16:07.522Z,96.60
2018-03-20T20:18:35.822Z,97.00
2018-03-20T20:21:03.426Z,97.00
2018-03-20T20:23:31.904Z,96.70
2018-03-20T20:25:59.641Z,96.80
2018-03-20T20:28:27.241Z,96.80
2018-03-20T20:30:56.541Z,96.80
2018-03-20T20:33:24.193Z,96.90
2018-03-20T20:35:53.191Z,98.50
2018-03-20T20:38:20.739Z,98.90
2018-03-20T20:40:49.198Z,99.20
2018-03-20T20:43:17.460Z,98.80
2018-03-20T20:45:45.504Z,98.40
2018-03-20T20:48:17.878Z,98.50
2018-03-20T20:53:57.715Z,98.90
2018-03-20T20:56:25.383Z,99.20
2018-03-20T20:58:52.972Z,99.30
2018-03-20T21:01:21.176Z,99.30
2018-03-20T21:03:49.080Z,98.40
2018-03-20T21:06:17.164Z,98.60
2018-03-20T21:08:46.140Z,98.80
2018-03-20T21:11:17.867Z,99.70
2018-03-20T21:13:46.257Z,99.70
2018-03-20T21:16:15.078Z,99.60
2018-03-20T21:18:43.422Z,99.90
2018-03-20T21:21:13.028Z,99.90
2018-03-20T21:23:40.838Z,99.90
2018-03-20T21:26:10.163Z,99.90
2018-03-20T21:28:37.702Z,99.90
2018-03-20T21:31:07.501Z,99.60
2018-03-20T21:33:35.100Z,99.30
2018-03-20T21:36:02.613Z,98.80
2018-03-20T21:38:30.258Z,99.20
2018-03-20T21:40:57.823Z,99.50
2018-03-20T21:43:25.538Z,99.10
2018-03-20T21:45:55.952Z,99.30
2018-03-20T21:48:25.511Z,99.40
2018-03-20T21:50:53.506Z,98.30
2018-03-20T21:53:21.983Z,99.00
2018-03-20T21:55:50.403Z,98.70
2018-03-20T21:58:17.979Z,98.80
2018-03-20T22:00:47.549Z,98.90
2018-03-20T22:03:15.102Z,99.00
2018-03-20T22:05:45.614Z,98.80
2018-03-20T22:08:13.924Z,98.70
2018-03-20T22:10:41.482Z,98.60
2018-03-20T22:13:09.075Z,98.90
2018-03-20T22:15:37.474Z,98.30
2018-03-20T22:18:05.895Z,98.20
2018-03-20T22:20:34.175Z,97.60
2018-03-20T22:23:02.496Z,97.30
2018-03-20T22:25:30.073Z,97.30
2018-03-20T22:27:57.564Z,97.20
2018-03-20T22:30:25.942Z,97.30
2018-03-20T22:32:53.420Z,97.30
2018-03-20T22:35:21.008Z,97.00
2018-03-20T22:37:48.557Z,96.40
2018-03-20T22:40:17.811Z,95.10
2018-03-20T22:42:45.426Z,95.10
2018-03-20T22:45:13.708Z,96.10
2018-03-20T22:47:42.006Z,96.20
2018-03-20T22:50:10.476Z,96.20
2018-03-20T22:52:38.884Z,95.60
2018-03-20T22:55:06.406Z,95.60
2018-03-20T22:57:34.907Z,96.60
2018-03-20T23:00:03.241Z,95.30
2018-03-20T23:02:31.653Z,95.40
2018-03-20T23:05:00.124Z,96.00
2018-03-20T23:07:27.676Z,95.70
2018-03-20T23:09:55.220Z,95.90
2018-03-20T23:12:22.859Z,95.60
2018-03-20T23:14:51.143Z,95.90
2018-03-20T23:17:38.925Z,96.10
2018-03-20T23:20:06.447Z,96.10
2018-03-20T23:25:14.494Z,95.00
2018-03-20T23:27:42.046Z,95.70
2018-03-20T23:30:09.552Z,95.20
2018-03-20T23:32:37.108Z,95.90
2018-03-20T23:35:04.631Z,95.80
2018-03-20T23:37:32.171Z,96.20
2018-03-20T23:39:59.803Z,96.60
2018-03-20T23:42:27.322Z,96.60
2018-03-20T23:44:55.752Z,96.40
2018-03-20T23:47:24.220Z,96.40
2018-03-20T23:49:51.882Z,96.50
2018-03-20T23:52:19.390Z,96.60
2018-03-20T23:54:47.730Z,96.90
2018-03-20T23:57:15.245Z,96.50
2018-03-20T23:59:43.531Z,96.40
